Time;durP1;ratioP1;P1;durP2;ratioP2;P2;SDS_P1;SDS_P2;PMS_P1;PMS_P2;Temp;Humidity;BMP_temperature;BMP_pressure;BME280_temperature;BME280_humidity;BME280_pressure;Samples;Min_cycle;Max_cycle;Signal;HPM_P1;HPM_P2
2023/08/10 00:00:15;;;;;;;6.83;2.63;;;15.90;1.00;;;;;;5013635;28;20171;-75
2023/08/10 00:02:42;;;;;;;6.17;2.80;;;15.90;1.00;;;;;;5011825;28;20281;-75
2023/08/10 00:05:09;;;;;;;9.03;2.63;;;15.90;1.00;;;;;;5013553;28;20576;-75
2023/08/10 00:07:35;;;;;;;3.83;2.47;;;15.90;1.00;;;;;;5009977;28;20417;-75
2023/08/10 00:10:08;;;;;;;5.47;2.50;;;15.90;1.00;;;;;;5012158;28;20428;-75
2023/08/10 00:12:34;;;;;;;7.23;2.87;;;15.80;1.00;;;;;;5012997;28;20492;-75
2023/08/10 00:15:00;;;;;;;6.20;2.70;;;15.70;1.00;;;;;;5013425;28;20449;-75
2023/08/10 00:17:25;;;;;;;9.50;3.10;;;15.70;1.00;;;;;;5011959;28;20460;-74
2023/08/10 00:19:51;;;;;;;19.60;3.07;;;15.70;1.00;;;;;;5011926;28;20630;-75
2023/08/10 00:22:16;;;;;;;5.43;2.30;;;15.60;1.00;;;;;;5013017;28;20198;-75
2023/08/10 00:24:42;;;;;;;5.93;2.60;;;15.60;1.00;;;;;;5011952;28;20186;-75
2023/08/10 00:27:08;;;;;;;10.70;2.73;;;15.60;1.00;;;;;;5013105;28;20178;-75
2023/08/10 00:29:33;;;;;;;11.80;2.93;;;15.50;1.00;;;;;;5012553;28;20526;-75
2023/08/10 00:31:59;;;;;;;5.73;3.30;;;15.40;1.00;;;;;;5012918;28;20190;-75
2023/08/10 00:34:25;;;;;;;4.70;2.90;;;15.40;1.00;;;;;;5012842;28;20580;-75
2023/08/10 00:36:51;;;;;;;7.67;2.50;;;15.40;1.00;;;;;;5013130;28;20178;-75
2023/08/10 00:39:17;;;;;;;4.70;2.90;;;15.30;1.00;;;;;;5012789;28;20186;-75
2023/08/10 00:41:43;;;;;;;7.23;2.73;;;15.20;1.00;;;;;;5012997;28;20198;-75
2023/08/10 00:44:08;;;;;;;9.23;2.73;;;15.40;1.00;;;;;;5011417;28;20757;-75
2023/08/10 00:46:34;;;;;;;6.13;2.50;;;15.20;1.00;;;;;;5012519;28;20660;-75
2023/08/10 00:49:01;;;;;;;13.13;3.60;;;15.20;1.00;;;;;;5012654;28;20450;-75
2023/08/10 00:51:26;;;;;;;5.40;2.67;;;15.10;1.00;;;;;;5011460;28;20217;-75
2023/08/10 00:53:53;;;;;;;4.40;2.70;;;15.10;1.00;;;;;;5007183;28;20941;-75
2023/08/10 00:56:18;;;;;;;3.53;2.70;;;15.10;1.00;;;;;;5008600;28;20224;-74
2023/08/10 00:58:44;;;;;;;8.57;2.77;;;15.00;1.00;;;;;;5010750;28;20414;-75
2023/08/10 01:01:10;;;;;;;6.13;2.60;;;15.00;1.00;;;;;;5010965;28;20692;-75
2023/08/10 01:03:36;;;;;;;6.43;2.70;;;15.00;1.00;;;;;;5012431;28;20651;-75
2023/08/10 01:06:43;;;;;;;7.13;3.00;;;15.00;1.00;;;;;;5007763;28;20174;-75
2023/08/10 01:09:22;;;;;;;9.30;2.43;;;15.00;1.00;;;;;;5001094;28;20293;-75
2023/08/10 01:12:13;;;;;;;10.23;2.83;;;14.90;1.00;;;;;;5011890;28;20445;-75
2023/08/10 01:14:45;;;;;;;6.33;3.07;;;14.90;1.00;;;;;;5012085;28;20432;-75
2023/08/10 01:17:25;;;;;;;4.10;2.80;;;14.90;1.00;;;;;;5012071;28;20426;-75
2023/08/10 01:19:53;;;;;;;3.30;2.50;;;14.80;1.00;;;;;;5004370;28;20810;-74
2023/08/10 01:22:48;;;;;;;5.27;2.70;;;14.80;1.00;;;;;;5012060;28;20529;-75
2023/08/10 01:25:15;;;;;;;3.93;2.57;;;14.80;1.00;;;;;;5011843;28;20979;-74
2023/08/10 01:27:41;;;;;;;4.13;2.30;;;14.80;1.00;;;;;;5010300;28;20959;-75
2023/08/10 01:30:08;;;;;;;6.23;2.83;;;14.80;1.00;;;;;;5012011;28;20421;-75
2023/08/10 01:32:33;;;;;;;11.53;2.63;;;14.80;1.00;;;;;;5010300;28;20492;-74
2023/08/10 01:34:59;;;;;;;5.37;2.20;;;14.80;1.00;;;;;;5010710;28;20414;-75
2023/08/10 01:37:26;;;;;;;8.77;3.30;;;14.70;1.00;;;;;;5011800;28;20523;-75
2023/08/10 01:39:51;;;;;;;6.10;2.50;;;14.70;1.00;;;;;;5009986;28;20426;-75
2023/08/10 01:42:18;;;;;;;4.23;2.47;;;14.70;1.00;;;;;;5011663;28;20947;-75
2023/08/10 01:44:43;;;;;;;5.80;2.63;;;14.70;1.00;;;;;;5010406;28;20316;-75
2023/08/10 01:47:19;;;;;;;4.60;2.20;;;14.70;1.00;;;;;;5011592;28;20445;-75
2023/08/10 01:49:49;;;;;;;3.03;2.70;;;14.70;1.00;;;;;;5010054;28;20707;-74
2023/08/10 01:52:17;;;;;;;3.90;2.80;;;14.60;1.00;;;;;;5010168;28;20437;-75
2023/08/10 01:54:44;;;;;;;10.70;3.20;;;14.60;1.00;;;;;;5011454;28;20497;-75
2023/08/10 01:57:09;;;;;;;7.40;2.90;;;14.60;1.00;;;;;;5007745;28;20419;-75
2023/08/10 01:59:35;;;;;;;5.90;2.70;;;14.50;1.00;;;;;;5011124;28;20938;-75
2023/08/10 02:02:00;;;;;;;7.10;2.60;;;14.40;1.00;;;;;;5009951;28;20310;-75
2023/08/10 02:04:26;;;;;;;6.10;2.77;;;14.50;1.00;;;;;;5011452;28;20610;-75
2023/08/10 02:06:51;;;;;;;4.73;2.93;;;14.40;1.00;;;;;;5004892;28;20270;-75
2023/08/10 02:09:17;;;;;;;5.70;2.53;;;14.30;1.00;;;;;;5011338;28;20289;-75
2023/08/10 02:11:42;;;;;;;8.57;2.37;;;14.30;1.00;;;;;;5010855;28;20225;-75
2023/08/10 02:14:08;;;;;;;6.70;2.80;;;14.30;1.00;;;;;;5011454;28;20181;-75
2023/08/10 02:16:33;;;;;;;6.03;2.73;;;14.30;1.00;;;;;;5009903;28;20549;-75
2023/08/10 02:18:59;;;;;;;4.37;2.17;;;14.20;1.00;;;;;;5011027;28;20254;-75
2023/08/10 02:21:26;;;;;;;3.93;2.57;;;14.20;1.00;;;;;;5010013;28;20187;-74
2023/08/10 02:23:52;;;;;;;3.90;2.40;;;14.20;1.00;;;;;;5011343;28;20518;-75
2023/08/10 02:26:17;;;;;;;6.77;2.73;;;14.10;1.00;;;;;;5010196;28;20632;-74
2023/08/10 02:28:43;;;;;;;10.93;2.77;;;14.00;1.00;;;;;;5011058;28;20202;-75
2023/08/10 02:31:09;;;;;;;3.10;2.50;;;14.00;1.00;;;;;;5011252;28;20558;-74
2023/08/10 02:33:34;;;;;;;7.33;2.60;;;13.90;1.00;;;;;;5011161;28;20240;-74
2023/08/10 02:36:00;;;;;;;4.60;2.77;;;13.80;1.00;;;;;;5009810;28;20171;-74
2023/08/10 02:38:25;;;;;;;5.70;2.60;;;13.80;1.00;;;;;;5011139;28;20178;-74
2023/08/10 02:40:51;;;;;;;14.07;3.30;;;13.80;1.00;;;;;;5010846;28;20182;-75
2023/08/10 02:43:16;;;;;;;7.17;2.80;;;13.80;1.00;;;;;;5011127;28;20182;-75
2023/08/10 02:45:42;;;;;;;3.63;2.20;;;13.90;1.00;;;;;;5010752;28;20212;-75
2023/08/10 02:48:07;;;;;;;4.10;2.80;;;13.90;1.00;;;;;;5009510;28;20273;-75
2023/08/10 02:50:33;;;;;;;4.37;2.53;;;13.80;1.00;;;;;;5011188;28;20540;-75
2023/08/10 02:52:59;;;;;;;10.40;2.60;;;13.80;1.00;;;;;;5009806;28;20229;-75
2023/08/10 02:55:24;;;;;;;6.60;2.43;;;13.80;1.00;;;;;;5009895;28;20171;-74
2023/08/10 02:57:50;;;;;;;4.70;3.20;;;13.80;1.00;;;;;;5009276;28;20198;-75
2023/08/10 03:00:15;;;;;;;8.40;2.70;;;13.70;1.00;;;;;;5009796;28;20194;-74
2023/08/10 03:02:41;;;;;;;4.30;2.20;;;13.70;1.00;;;;;;5010498;28;20199;-75
2023/08/10 03:05:07;;;;;;;8.47;2.70;;;13.60;1.00;;;;;;5010888;28;20541;-75
2023/08/10 03:07:33;;;;;;;4.70;2.60;;;13.70;1.00;;;;;;5010443;28;20669;-75
2023/08/10 03:09:58;;;;;;;5.67;2.70;;;13.70;1.00;;;;;;5009266;28;20175;-75
2023/08/10 03:12:24;;;;;;;8.77;2.40;;;13.70;1.00;;;;;;5010370;28;20214;-75
2023/08/10 03:14:49;;;;;;;4.80;2.63;;;13.70;1.00;;;;;;5009414;28;20174;-75
2023/08/10 03:17:15;;;;;;;3.20;2.50;;;13.70;1.00;;;;;;5009658;28;20637;-75
2023/08/10 03:19:44;;;;;;;9.07;3.80;;;13.70;1.00;;;;;;5010241;28;20182;-75
2023/08/10 03:22:09;;;;;;;6.30;2.30;;;13.60;1.00;;;;;;5010500;28;20206;-75
2023/08/10 03:24:36;;;;;;;8.10;2.73;;;13.60;1.00;;;;;;5010674;28;20985;-75
2023/08/10 03:27:02;;;;;;;8.73;2.43;;;13.50;1.00;;;;;;5002574;28;20649;-75
2023/08/10 03:29:28;;;;;;;4.70;2.40;;;13.50;1.00;;;;;;5009595;28;20460;-75
2023/08/10 03:31:54;;;;;;;9.40;2.83;;;13.50;1.00;;;;;;5014301;28;20688;-75
2023/08/10 03:34:19;;;;;;;13.90;3.13;;;13.50;1.00;;;;;;5014400;28;20167;-75
2023/08/10 03:36:45;;;;;;;4.77;2.50;;;13.60;1.00;;;;;;5014117;28;20174;-75
2023/08/10 03:39:10;;;;;;;7.23;2.43;;;13.60;1.00;;;;;;5013134;28;20174;-75
2023/08/10 03:41:36;;;;;;;7.80;2.57;;;13.60;1.00;;;;;;5014528;28;20532;-75
2023/08/10 03:44:01;;;;;;;5.57;2.50;;;13.60;1.00;;;;;;5014117;28;20193;-75
2023/08/10 03:46:27;;;;;;;6.40;2.30;;;13.50;1.00;;;;;;5014272;28;20185;-75
2023/08/10 03:48:52;;;;;;;4.77;2.90;;;13.50;1.00;;;;;;5013619;28;20707;-75
2023/08/10 03:51:18;;;;;;;8.33;2.47;;;13.60;1.00;;;;;;5014184;28;20202;-75
2023/08/10 03:53:43;;;;;;;4.33;2.63;;;14.20;1.00;;;;;;5014143;28;20206;-75
2023/08/10 03:56:09;;;;;;;11.60;2.80;;;13.60;1.00;;;;;;5014181;28;20202;-75
2023/08/10 03:58:34;;;;;;;6.40;2.57;;;13.70;1.00;;;;;;5012784;28;20194;-75
2023/08/10 04:01:02;;;;;;;4.00;2.43;;;13.80;1.00;;;;;;5013622;28;20200;-75
2023/08/10 04:03:27;;;;;;;6.60;2.60;;;13.90;1.00;;;;;;5012570;28;20212;-75
2023/08/10 04:05:53;;;;;;;4.23;2.50;;;13.90;1.00;;;;;;5008304;28;20421;-75
2023/08/10 04:08:19;;;;;;;5.00;2.50;;;13.90;1.00;;;;;;5007423;28;20191;-75
2023/08/10 04:10:44;;;;;;;7.80;2.73;;;13.90;1.00;;;;;;5013626;28;20728;-74
2023/08/10 04:13:10;;;;;;;6.23;2.40;;;13.80;1.00;;;;;;5012648;28;20541;-75
2023/08/10 04:15:36;;;;;;;5.40;2.80;;;13.80;1.00;;;;;;5012836;28;20197;-75
2023/08/10 04:18:02;;;;;;;8.63;3.33;;;13.70;1.00;;;;;;5013367;28;20548;-75
2023/08/10 04:20:27;;;;;;;4.60;2.80;;;13.60;1.00;;;;;;5013604;28;20424;-74
2023/08/10 04:22:54;;;;;;;8.43;2.90;;;13.60;1.00;;;;;;5013478;28;20210;-75
2023/08/10 04:25:19;;;;;;;4.40;2.70;;;13.60;1.00;;;;;;5013618;28;20173;-75
2023/08/10 04:27:45;;;;;;;5.00;2.80;;;13.60;1.00;;;;;;5013344;28;20784;-75
2023/08/10 04:30:12;;;;;;;4.73;2.80;;;13.70;1.00;;;;;;5012173;28;20687;-75
2023/08/10 04:32:38;;;;;;;3.20;2.70;;;13.70;1.00;;;;;;5011838;28;20616;-75
2023/08/10 04:35:04;;;;;;;10.50;2.67;;;13.70;1.00;;;;;;5012043;28;20750;-75
2023/08/10 04:37:30;;;;;;;5.67;3.10;;;13.80;1.00;;;;;;5013245;28;20559;-75
2023/08/10 04:39:55;;;;;;;8.33;2.67;;;13.80;1.00;;;;;;5011859;28;20500;-75
2023/08/10 04:42:21;;;;;;;9.43;2.53;;;13.90;1.00;;;;;;5011610;28;20194;-75
2023/08/10 04:44:46;;;;;;;8.30;2.70;;;13.90;1.00;;;;;;5013549;28;20214;-75
2023/08/10 04:47:12;;;;;;;4.20;3.00;;;14.00;1.00;;;;;;5011702;28;20261;-75
2023/08/10 04:49:37;;;;;;;4.83;2.77;;;14.00;1.00;;;;;;5011757;28;20236;-75
2023/08/10 04:52:03;;;;;;;6.77;2.50;;;14.10;1.00;;;;;;5012779;28;20568;-75
2023/08/10 04:54:29;;;;;;;5.53;2.50;;;14.20;1.00;;;;;;5013301;28;20237;-75
2023/08/10 04:56:54;;;;;;;4.20;2.50;;;14.40;1.00;;;;;;5011518;28;20541;-75
2023/08/10 04:59:20;;;;;;;2.97;2.67;;;14.50;1.00;;;;;;5012904;28;20676;-75
2023/08/10 05:01:46;;;;;;;4.70;2.77;;;14.70;1.00;;;;;;5011333;28;20198;-75
2023/08/10 05:04:14;;;;;;;2.53;2.23;;;14.90;1.00;;;;;;5012813;28;20178;-75
2023/08/10 05:06:40;;;;;;;5.40;2.50;;;17.40;1.00;;;;;;5012452;28;20679;-75
2023/08/10 05:09:05;;;;;;;4.97;2.70;;;15.20;1.00;;;;;;5012441;28;20457;-75
2023/08/10 05:11:31;;;;;;;3.50;2.63;;;15.30;1.00;;;;;;5011199;28;20549;-75
2023/08/10 05:13:56;;;;;;;4.03;2.37;;;15.50;1.00;;;;;;5011067;28;20182;-75
2023/08/10 05:16:22;;;;;;;6.03;3.43;;;15.60;1.00;;;;;;5012572;28;20450;-75
2023/08/10 05:18:48;;;;;;;4.10;2.80;;;15.50;1.00;;;;;;5011178;28;20273;-74
2023/08/10 05:21:14;;;;;;;8.83;3.00;;;15.60;1.00;;;;;;5012486;28;20568;-75
2023/08/10 05:23:40;;;;;;;4.87;2.80;;;15.60;1.00;;;;;;5012496;28;20175;-75
2023/08/10 05:26:07;;;;;;;2.90;2.60;;;15.70;1.00;;;;;;5010866;28;20417;-76
2023/08/10 05:28:32;;;;;;;3.70;2.83;;;15.70;1.00;;;;;;5011065;28;20456;-75
2023/08/10 05:30:58;;;;;;;5.80;2.60;;;16.00;1.00;;;;;;5011963;28;20417;-75
2023/08/10 05:33:23;;;;;;;3.27;2.53;;;16.00;1.00;;;;;;5012412;28;20557;-75
2023/08/10 05:35:49;;;;;;;5.87;3.17;;;16.00;1.00;;;;;;5011709;28;20680;-75
2023/08/10 05:38:14;;;;;;;4.37;3.20;;;16.10;1.00;;;;;;5012213;28;20186;-75
2023/08/10 05:40:40;;;;;;;5.23;3.10;;;16.10;1.00;;;;;;5012496;28;20273;-75
2023/08/10 05:43:07;;;;;;;6.10;3.30;;;16.10;1.00;;;;;;5010553;28;20203;-75
2023/08/10 05:45:32;;;;;;;7.33;3.70;;;16.20;1.00;;;;;;5011945;28;20182;-75
2023/08/10 05:47:58;;;;;;;4.97;3.70;;;16.30;1.00;;;;;;5011694;28;20433;-76
2023/08/10 05:50:23;;;;;;;6.37;3.87;;;16.30;1.00;;;;;;5012083;28;20209;-75
2023/08/10 05:52:49;;;;;;;5.30;4.10;;;16.40;1.00;;;;;;5011458;28;20233;-76
2023/08/10 05:55:15;;;;;;;6.47;4.00;;;16.40;1.00;;;;;;5011817;28;20171;-76
2023/08/10 05:57:41;;;;;;;10.07;3.83;;;16.60;1.00;;;;;;5012331;28;20175;-75
2023/08/10 06:00:08;;;;;;;8.00;3.80;;;16.60;1.00;;;;;;5008990;28;20210;-75
2023/08/10 06:02:34;;;;;;;8.87;3.80;;;16.70;1.00;;;;;;5011481;28;20433;-75
2023/08/10 06:04:59;;;;;;;12.43;6.40;;;16.80;1.00;;;;;;5011433;28;20436;-75
2023/08/10 06:07:25;;;;;;;9.80;3.83;;;16.90;1.00;;;;;;5008663;28;20202;-75
2023/08/10 06:09:50;;;;;;;8.20;4.30;;;17.00;1.00;;;;;;5011558;28;20217;-76
2023/08/10 06:12:17;;;;;;;4.77;3.40;;;17.00;1.00;;;;;;5010109;28;20696;-75
2023/08/10 06:14:44;;;;;;;9.57;3.67;;;17.00;1.00;;;;;;5010193;28;20189;-75
2023/08/10 06:17:09;;;;;;;5.30;3.80;;;17.00;1.00;;;;;;5011306;28;20471;-76
2023/08/10 06:19:35;;;;;;;6.60;3.93;;;17.10;1.00;;;;;;5011344;28;20417;-75
2023/08/10 06:22:01;;;;;;;5.00;3.77;;;17.20;1.00;;;;;;5011337;28;20202;-75
2023/08/10 06:24:26;;;;;;;7.97;3.83;;;17.20;1.00;;;;;;5011386;28;20480;-75
2023/08/10 06:26:52;;;;;;;3.83;3.40;;;17.30;1.00;;;;;;5011275;28;20600;-75
2023/08/10 06:29:18;;;;;;;10.30;4.57;;;17.30;1.00;;;;;;5010771;28;20204;-74
2023/08/10 06:31:43;;;;;;;9.53;3.90;;;17.40;1.00;;;;;;5011125;28;20202;-74
2023/08/10 06:34:09;;;;;;;7.67;3.77;;;17.50;1.00;;;;;;5010896;28;20187;-74
2023/08/10 06:36:34;;;;;;;5.77;3.33;;;17.70;1.00;;;;;;5009775;28;20620;-74
2023/08/10 06:39:01;;;;;;;8.93;3.53;;;17.90;1.00;;;;;;5010802;28;20232;-74
2023/08/10 06:41:26;;;;;;;8.17;3.97;;;18.10;1.00;;;;;;5011110;28;20569;-75
2023/08/10 06:43:52;;;;;;;9.07;3.53;;;18.20;1.00;;;;;;5009756;28;20429;-74
2023/08/10 06:46:17;;;;;;;4.60;3.57;;;18.10;1.00;;;;;;5010732;28;20190;-75
2023/08/10 06:48:43;;;;;;;6.07;3.90;;;18.10;1.00;;;;;;5010926;28;20194;-75
2023/08/10 06:51:08;;;;;;;4.97;3.80;;;18.10;1.00;;;;;;5010977;28;20309;-74
2023/08/10 06:53:34;;;;;;;8.97;4.07;;;18.40;1.00;;;;;;5011137;28;20260;-75
2023/08/10 06:56:00;;;;;;;7.90;3.70;;;18.60;1.00;;;;;;5009486;28;20218;-75
2023/08/10 06:58:25;;;;;;;6.83;3.73;;;18.70;1.00;;;;;;5010609;28;20174;-75
2023/08/10 07:00:51;;;;;;;5.60;3.67;;;18.70;1.00;;;;;;5010893;28;20289;-75
2023/08/10 07:03:17;;;;;;;8.00;3.37;;;18.70;1.00;;;;;;5010641;28;20193;-74
2023/08/10 07:05:43;;;;;;;5.40;3.67;;;18.80;1.00;;;;;;5009318;28;20183;-75
2023/08/10 07:08:09;;;;;;;5.00;3.00;;;18.90;1.00;;;;;;5009938;28;20225;-75
2023/08/10 07:10:36;;;;;;;7.67;3.37;;;18.90;1.00;;;;;;5010354;28;20457;-74
2023/08/10 07:13:02;;;;;;;5.43;3.20;;;19.00;1.00;;;;;;5010577;28;20481;-75
2023/08/10 07:15:28;;;;;;;6.17;3.20;;;19.10;1.00;;;;;;5009493;28;20920;-74
2023/08/10 07:17:54;;;;;;;4.43;3.20;;;19.40;1.00;;;;;;5009183;28;20180;-74
2023/08/10 07:20:20;;;;;;;5.70;3.53;;;19.40;1.00;;;;;;5010715;28;20217;-74
2023/08/10 07:22:45;;;;;;;8.43;3.17;;;19.40;1.00;;;;;;5010831;28;20193;-75
2023/08/10 07:25:17;;;;;;;10.27;3.10;;;19.40;1.00;;;;;;5009085;28;20648;-74
2023/08/10 07:27:43;;;;;;;5.13;2.87;;;19.70;1.00;;;;;;5010429;28;20637;-74
2023/08/10 07:30:09;;;;;;;4.80;3.33;;;20.10;1.00;;;;;;5010370;28;20434;-75
2023/08/10 07:32:35;;;;;;;5.47;3.40;;;20.40;1.00;;;;;;5010335;28;20438;-75
2023/08/10 07:35:00;;;;;;;8.50;3.10;;;20.80;1.00;;;;;;5010353;28;20424;-75
2023/08/10 07:37:26;;;;;;;6.10;3.20;;;21.20;1.00;;;;;;5010531;28;20194;-75
2023/08/10 07:39:51;;;;;;;5.63;3.40;;;21.60;1.00;;;;;;5010676;28;20848;-75
2023/08/10 07:42:17;;;;;;;7.97;3.83;;;21.70;1.00;;;;;;5010082;28;20205;-75
2023/08/10 07:44:43;;;;;;;7.33;3.27;;;21.90;1.00;;;;;;5009467;28;20182;-75
2023/08/10 07:47:09;;;;;;;6.50;3.23;;;22.00;1.00;;;;;;5009108;28;20178;-75
2023/08/10 07:49:34;;;;;;;7.60;3.10;;;22.00;1.00;;;;;;5009064;28;20190;-75
2023/08/10 07:52:00;;;;;;;6.30;3.17;;;22.00;1.00;;;;;;5009198;28;20444;-75
2023/08/10 07:54:25;;;;;;;5.10;3.67;;;21.90;1.00;;;;;;5010476;28;20198;-75
2023/08/10 07:56:51;;;;;;;5.20;3.50;;;22.10;1.00;;;;;;5010096;28;20236;-75
2023/08/10 07:59:17;;;;;;;6.63;3.20;;;22.10;1.00;;;;;;5010077;28;20190;-75
2023/08/10 08:01:43;;;;;;;4.37;3.40;;;22.30;1.00;;;;;;5008985;28;20202;-76
2023/08/10 08:04:09;;;;;;;4.83;2.93;;;22.60;1.00;;;;;;5008814;28;20236;-75
2023/08/10 08:06:38;;;;;;;4.20;3.17;;;22.80;1.00;;;;;;5007254;28;20433;-75
2023/08/10 08:09:06;;;;;;;6.20;3.30;;;23.10;1.00;;;;;;5009952;28;20194;-75
2023/08/10 08:11:32;;;;;;;5.40;3.27;;;23.20;1.00;;;;;;5010166;28;20484;-75
2023/08/10 08:13:57;;;;;;;8.67;3.30;;;23.20;1.00;;;;;;5008884;28;20852;-75
2023/08/10 08:16:23;;;;;;;4.40;2.80;;;23.40;1.00;;;;;;5010468;28;20510;-75
2023/08/10 08:18:52;;;;;;;3.97;2.70;;;23.60;1.00;;;;;;5012483;28;20186;-75
2023/08/10 08:21:20;;;;;;;4.90;2.87;;;23.70;1.00;;;;;;5013506;28;20624;-75
2023/08/10 08:23:48;;;;;;;4.20;2.90;;;24.20;1.00;;;;;;5013946;28;20427;-75
2023/08/10 08:26:15;;;;;;;6.60;3.20;;;25.20;1.00;;;;;;5012475;28;20787;-75
2023/08/10 08:28:41;;;;;;;3.77;2.63;;;26.10;1.00;;;;;;5013955;28;20460;-76
2023/08/10 08:31:07;;;;;;;6.93;2.90;;;27.20;1.00;;;;;;5012213;28;20854;-75
2023/08/10 08:33:33;;;;;;;4.20;2.90;;;27.80;1.00;;;;;;5012667;28;20401;-76
2023/08/10 08:35:59;;;;;;;3.90;2.60;;;28.70;1.00;;;;;;5012504;28;20174;-76
2023/08/10 08:38:25;;;;;;;4.10;2.67;;;29.60;1.00;;;;;;5012027;28;20576;-76
2023/08/10 08:40:52;;;;;;;5.75;2.65;;;30.80;1.00;;;;;;5013562;28;20188;-76
2023/08/10 08:43:18;;;;;;;3.33;2.30;;;30.70;1.00;;;;;;5012400;28;20189;-77
2023/08/10 08:45:44;;;;;;;4.85;2.60;;;31.60;1.00;;;;;;5012371;28;20556;-76
2023/08/10 08:48:10;;;;;;;3.20;2.38;;;32.20;1.00;;;;;;5013274;28;20240;-76
2023/08/10 08:50:37;;;;;;;6.22;2.65;;;32.40;1.00;;;;;;5012263;28;20181;-77
2023/08/10 08:53:08;;;;;;;3.60;2.50;;;32.00;1.00;;;;;;5012256;28;20573;-77
2023/08/10 08:55:34;;;;;;;3.25;2.30;;;32.00;1.00;;;;;;5013617;28;20173;-77
2023/08/10 08:58:00;;;;;;;5.13;2.30;;;32.00;1.00;;;;;;5012171;28;20181;-77
2023/08/10 09:00:25;;;;;;;4.32;2.15;;;32.80;1.00;;;;;;5013248;28;20552;-76
2023/08/10 09:02:52;;;;;;;4.28;2.25;;;33.10;1.00;;;;;;5013362;28;20576;-77
2023/08/10 09:05:18;;;;;;;5.10;2.50;;;33.10;1.00;;;;;;5011728;28;20284;-77
2023/08/10 09:07:44;;;;;;;4.72;2.38;;;33.20;1.00;;;;;;5011191;28;20178;-77
2023/08/10 09:10:10;;;;;;;5.63;2.50;;;33.50;1.00;;;;;;5011991;28;20201;-75
2023/08/10 09:12:36;;;;;;;3.83;2.40;;;33.80;1.00;;;;;;5012921;28;20220;-77
2023/08/10 09:15:05;;;;;;;4.32;2.17;;;34.00;1.00;;;;;;5013189;28;20670;-77
2023/08/10 09:17:36;;;;;;;3.03;2.20;;;34.10;1.00;;;;;;5013305;28;20225;-77
2023/08/10 09:20:02;;;;;;;5.10;2.38;;;33.90;1.00;;;;;;5012818;28;20182;-77
2023/08/10 09:22:36;;;;;;;3.00;2.10;;;33.50;1.00;;;;;;5012724;28;20200;-76
2023/08/10 09:25:04;;;;;;;5.85;2.17;;;33.40;1.00;;;;;;5013101;28;20220;-77
2023/08/10 09:27:30;;;;;;;3.42;2.42;;;33.80;1.00;;;;;;5011700;28;20256;-77
2023/08/10 09:30:06;;;;;;;8.18;2.35;;;33.60;1.00;;;;;;5013100;28;20198;-76
2023/08/10 09:32:33;;;;;;;4.80;2.28;;;34.10;1.00;;;;;;5012572;28;20192;-77
2023/08/10 09:34:59;;;;;;;4.35;2.38;;;35.00;1.00;;;;;;5011588;28;20170;-77
2023/08/10 09:37:25;;;;;;;3.60;2.30;;;35.10;1.00;;;;;;5012441;28;20257;-77
2023/08/10 09:40:03;;;;;;;4.03;2.05;;;35.80;1.00;;;;;;5012534;28;20170;-78
2023/08/10 09:42:33;;;;;;;4.43;2.00;;;36.30;1.00;;;;;;5012334;28;20190;-77
2023/08/10 09:45:04;;;;;;;3.72;2.40;;;36.40;1.00;;;;;;5011288;28;20178;-75
2023/08/10 09:47:35;;;;;;;4.43;2.33;;;36.70;1.00;;;;;;5012254;28;20182;-77
2023/08/10 09:50:05;;;;;;;5.10;2.40;;;37.20;1.00;;;;;;5012381;28;20218;-77
2023/08/10 09:52:33;;;;;;;3.40;2.10;;;37.10;1.00;;;;;;5010719;28;20280;-77
2023/08/10 09:54:59;;;;;;;3.70;2.40;;;37.40;1.00;;;;;;5012347;28;20174;-76
2023/08/10 09:57:26;;;;;;;4.13;2.17;;;37.40;1.00;;;;;;5012121;28;20252;-77
2023/08/10 09:59:51;;;;;;;4.32;2.20;;;37.30;1.00;;;;;;5012350;28;20524;-77
2023/08/10 10:02:18;;;;;;;2.90;1.95;;;36.90;1.00;;;;;;5012291;28;20206;-77
2023/08/10 10:04:45;;;;;;;3.80;2.30;;;36.30;1.00;;;;;;5011130;28;20261;-76
2023/08/10 10:07:11;;;;;;;4.75;2.25;;;36.20;1.00;;;;;;5004228;28;20174;-76
2023/08/10 10:09:38;;;;;;;7.78;2.20;;;35.70;1.00;;;;;;5010460;28;20636;-78
2023/08/10 10:12:10;;;;;;;4.50;2.30;;;35.70;1.00;;;;;;5007908;28;20206;-76
2023/08/10 10:14:41;;;;;;;3.60;2.50;;;35.50;1.00;;;;;;5010787;28;20612;-76
2023/08/10 10:17:09;;;;;;;3.95;2.00;;;35.70;1.00;;;;;;5012194;28;20645;-76
2023/08/10 10:19:34;;;;;;;3.28;2.20;;;36.00;1.00;;;;;;5010432;28;20178;-77
2023/08/10 10:22:00;;;;;;;5.28;2.60;;;36.80;1.00;;;;;;5012054;28;20271;-77
2023/08/10 10:24:31;;;;;;;4.05;2.40;;;37.10;1.00;;;;;;5012138;28;20322;-77
2023/08/10 10:27:04;;;;;;;4.15;2.35;;;37.60;1.00;;;;;;5011915;28;20232;-76
2023/08/10 10:29:51;;;;;;;3.67;2.45;;;37.90;1.00;;;;;;5011601;28;20263;-76
2023/08/10 10:32:19;;;;;;;3.35;2.15;;;38.00;1.00;;;;;;5010314;28;20204;-76
2023/08/10 10:34:45;;;;;;;4.00;2.55;;;38.20;1.00;;;;;;5011920;28;20663;-77
2023/08/10 10:37:16;;;;;;;5.60;2.30;;;38.30;1.00;;;;;;5011570;28;20258;-77
2023/08/10 10:39:44;;;;;;;3.85;2.38;;;38.10;1.00;;;;;;5011459;28;20174;-77
2023/08/10 10:42:16;;;;;;;3.20;2.30;;;37.40;1.00;;;;;;5010362;28;20564;-76
2023/08/10 10:45:04;;;;;;;3.95;2.50;;;37.40;1.00;;;;;;5004131;28;20510;-76
2023/08/10 10:47:39;;;;;;;3.70;2.38;;;37.80;1.00;;;;;;5010560;28;20278;-76
2023/08/10 10:50:18;;;;;;;4.35;2.40;;;38.00;1.00;;;;;;5010287;28;20247;-76
2023/08/10 10:53:03;;;;;;;3.63;1.92;;;37.90;1.00;;;;;;5011516;28;20194;-77
2023/08/10 10:55:40;;;;;;;3.40;2.25;;;38.00;1.00;;;;;;5010130;28;20192;-76
2023/08/10 10:58:07;;;;;;;7.75;2.50;;;38.50;1.00;;;;;;5010103;28;20169;-76
2023/08/10 11:00:35;;;;;;;3.40;2.20;;;39.10;1.00;;;;;;5011347;28;20640;-77
2023/08/10 11:03:04;;;;;;;4.25;2.35;;;39.70;1.00;;;;;;5010160;28;20240;-77
2023/08/10 11:05:29;;;;;;;4.03;2.20;;;40.40;1.00;;;;;;5011244;28;20174;-76
2023/08/10 11:08:03;;;;;;;3.53;2.20;;;40.10;1.00;;;;;;5005626;28;20197;-76
2023/08/10 11:10:31;;;;;;;4.13;2.13;;;40.40;1.00;;;;;;5010743;28;20178;-76
2023/08/10 11:12:57;;;;;;;4.13;2.17;;;40.40;1.00;;;;;;5010067;28;20196;-76
2023/08/10 11:15:23;;;;;;;6.22;2.10;;;40.50;1.00;;;;;;5009629;28;20257;-76
2023/08/10 11:17:52;;;;;;;3.75;2.13;;;40.60;1.00;;;;;;5010136;28;20577;-77
2023/08/10 11:20:21;;;;;;;3.50;2.15;;;39.80;1.00;;;;;;5011263;28;20606;-76
2023/08/10 11:22:51;;;;;;;3.33;2.10;;;40.00;1.00;;;;;;5009965;28;20280;-76
2023/08/10 11:25:18;;;;;;;3.22;2.17;;;40.00;1.00;;;;;;5009678;28;20193;-77
2023/08/10 11:27:47;;;;;;;3.60;2.13;;;39.80;1.00;;;;;;5010856;28;20256;-76
2023/08/10 11:30:15;;;;;;;7.25;2.30;;;40.20;1.00;;;;;;5010933;28;20186;-77
2023/08/10 11:32:43;;;;;;;4.80;2.45;;;40.20;1.00;;;;;;5009550;28;20209;-77
2023/08/10 11:35:10;;;;;;;6.65;2.20;;;40.60;1.00;;;;;;5011065;28;20583;-76
2023/08/10 11:37:38;;;;;;;5.47;2.40;;;40.90;1.00;;;;;;5005091;28;20536;-76
2023/08/10 11:40:06;;;;;;;4.60;2.05;;;41.30;1.00;;;;;;5009689;28;20173;-77
2023/08/10 11:42:36;;;;;;;3.75;2.25;;;41.40;1.00;;;;;;5010713;28;20197;-77
2023/08/10 11:45:16;;;;;;;4.47;2.13;;;41.10;1.00;;;;;;5010006;28;20577;-76
2023/08/10 11:48:03;;;;;;;4.60;3.38;;;40.80;1.00;;;;;;5010727;28;20193;-76
2023/08/10 11:50:31;;;;;;;3.40;2.60;;;40.00;1.00;;;;;;5009345;28;20240;-76
2023/08/10 11:53:07;;;;;;;3.47;2.17;;;40.30;1.00;;;;;;5013507;28;20221;-77
2023/08/10 11:55:33;;;;;;;3.05;2.20;;;40.70;1.00;;;;;;5014764;28;20208;-76
2023/08/10 11:58:00;;;;;;;3.45;2.40;;;41.30;1.00;;;;;;5013587;28;20178;-76
2023/08/10 12:00:30;;;;;;;3.40;2.15;;;41.60;1.00;;;;;;5013339;28;20179;-76
2023/08/10 12:03:03;;;;;;;3.50;2.00;;;41.50;1.00;;;;;;5014840;28;20233;-77
2023/08/10 12:05:46;;;;;;;3.20;2.30;;;41.40;1.00;;;;;;5014957;28;20158;-76
2023/08/10 12:08:13;;;;;;;4.00;2.50;;;40.70;1.00;;;;;;5014302;28;20455;-77
2023/08/10 12:10:45;;;;;;;5.45;2.53;;;40.40;1.00;;;;;;5012757;28;20186;-77
2023/08/10 12:13:15;;;;;;;3.10;2.10;;;40.90;1.00;;;;;;5013583;28;20182;-77
2023/08/10 12:15:46;;;;;;;4.22;2.10;;;40.30;1.00;;;;;;5012820;28;20170;-76
2023/08/10 12:18:12;;;;;;;3.90;2.30;;;40.30;1.00;;;;;;5014277;28;20533;-77
2023/08/10 12:20:37;;;;;;;2.72;1.95;;;41.00;1.00;;;;;;5014210;28;20178;-76
2023/08/10 12:23:03;;;;;;;3.90;2.30;;;41.50;1.00;;;;;;5014132;28;20186;-77
2023/08/10 12:25:29;;;;;;;4.35;2.35;;;41.50;1.00;;;;;;5012532;28;20259;-76
2023/08/10 12:27:54;;;;;;;4.93;2.50;;;41.10;1.00;;;;;;5012773;28;20699;-76
2023/08/10 12:30:20;;;;;;;3.50;2.30;;;40.70;1.00;;;;;;5014200;28;20194;-77
2023/08/10 12:32:45;;;;;;;2.80;2.00;;;40.70;1.00;;;;;;5013764;28;20230;-77
2023/08/10 12:35:12;;;;;;;3.90;2.50;;;40.50;1.00;;;;;;5012656;28;20256;-76
2023/08/10 12:37:37;;;;;;;3.80;2.20;;;40.30;1.00;;;;;;5013410;28;20184;-76
2023/08/10 12:40:05;;;;;;;4.22;2.08;;;40.50;1.00;;;;;;5012301;28;20170;-76
2023/08/10 12:42:30;;;;;;;3.80;2.50;;;40.90;1.00;;;;;;5013294;28;20204;-76
2023/08/10 12:44:56;;;;;;;3.28;2.20;;;41.50;1.00;;;;;;5012466;28;20177;-77
2023/08/10 12:47:21;;;;;;;5.88;2.38;;;42.30;1.00;;;;;;5013630;28;20671;-77
2023/08/10 12:49:47;;;;;;;4.00;2.30;;;42.80;1.00;;;;;;5013388;28;20209;-77
2023/08/10 12:52:12;;;;;;;4.18;2.38;;;42.90;1.00;;;;;;5012224;28;20182;-77
2023/08/10 12:54:38;;;;;;;3.55;2.20;;;42.10;1.00;;;;;;5012086;28;20185;-77